Time;durP1;ratioP1;P1;durP2;ratioP2;P2;SDS_P1;SDS_P2;PMS_P1;PMS_P2;Temp;Humidity;BMP_temperature;BMP_pressure;BME280_temperature;BME280_humidity;BME280_pressure;Samples;Min_cycle;Max_cycle;Signal;HPM_P1;HPM_P2
2021/03/29 04:32:13;;;;;;;20.15;3.55;;;7.90;99.90;;;;;;8211820;28;22405;-73
2021/03/29 04:36:22;;;;;;;29.48;6.30;;;7.90;99.90;;;;;;8218142;28;20046;-72
2021/03/29 04:40:30;;;;;;;27.02;6.13;;;7.90;99.90;;;;;;8272598;28;20177;-71
2021/03/29 04:44:35;;;;;;;24.10;5.32;;;7.90;99.90;;;;;;8238795;28;20049;-69
2021/03/29 04:48:40;;;;;;;27.45;4.47;;;7.80;99.90;;;;;;8246339;28;20049;-71
2021/03/29 04:52:49;;;;;;;33.72;5.00;;;7.90;99.90;;;;;;8262689;28;20526;-70
2021/03/29 04:56:53;;;;;;;30.65;6.15;;;7.90;99.90;;;;;;8245122;28;20485;-73
2021/03/29 05:00:58;;;;;;;27.15;5.78;;;7.80;99.90;;;;;;8277263;28;20092;-70
2021/03/29 05:05:04;;;;;;;28.10;4.47;;;7.90;99.90;;;;;;8247537;28;20045;-71
2021/03/29 05:09:10;;;;;;;26.48;4.35;;;8.00;99.90;;;;;;8277295;28;20045;-67
2021/03/29 05:13:19;;;;;;;23.40;4.85;;;8.00;99.90;;;;;;8290744;28;20076;-67
2021/03/29 05:17:24;;;;;;;34.92;5.55;;;8.00;99.90;;;;;;8277376;28;20069;-66
2021/03/29 05:21:28;;;;;;;27.50;4.88;;;8.00;99.90;;;;;;8298790;28;20095;-65
2021/03/29 05:25:32;;;;;;;27.48;4.70;;;8.00;99.90;;;;;;8271325;28;20053;-65
2021/03/29 05:29:43;;;;;;;31.63;5.30;;;8.10;99.90;;;;;;8290946;28;20072;-67
2021/03/29 05:33:48;;;;;;;22.35;4.60;;;8.10;99.90;;;;;;8291321;28;20815;-65
2021/03/29 05:37:52;;;;;;;26.20;5.00;;;8.10;99.90;;;;;;8282079;28;20115;-66
2021/03/29 05:41:59;;;;;;;28.85;4.55;;;8.10;99.90;;;;;;8282803;28;20080;-66
2021/03/29 05:46:03;;;;;;;20.45;3.35;;;8.10;99.90;;;;;;8300711;28;20045;-66
2021/03/29 05:50:10;;;;;;;31.40;5.57;;;8.10;99.90;;;;;;8297492;28;20055;-67
2021/03/29 05:54:14;;;;;;;27.85;5.47;;;8.10;99.90;;;;;;8294171;28;20049;-65
2021/03/29 06:02:32;;;;;;;16.27;3.30;;;8.10;99.90;;;;;;8272784;28;20050;-66
2021/03/29 06:06:37;;;;;;;27.20;4.90;;;8.10;99.90;;;;;;8276168;28;20100;-65
2021/03/29 06:10:54;;;;;;;29.15;5.22;;;8.20;99.90;;;;;;8291956;28;20054;-65
2021/03/29 06:15:05;;;;;;;23.15;4.78;;;8.20;99.90;;;;;;8267900;28;20061;-67
2021/03/29 06:19:10;;;;;;;20.05;4.43;;;8.20;99.90;;;;;;8236011;28;20041;-67
2021/03/29 06:23:14;;;;;;;24.65;4.38;;;8.10;99.90;;;;;;8284936;28;20045;-67
2021/03/29 06:27:25;;;;;;;24.90;5.07;;;8.10;99.90;;;;;;8282956;28;20103;-67
2021/03/29 06:31:34;;;;;;;18.00;4.57;;;8.10;99.90;;;;;;8310272;28;20059;-65
2021/03/29 06:35:42;;;;;;;17.92;4.20;;;8.10;99.90;;;;;;8311800;28;20115;-66
2021/03/29 06:39:51;;;;;;;19.02;3.80;;;8.10;99.90;;;;;;8303242;28;20480;-67
2021/03/29 06:43:58;;;;;;;30.97;5.17;;;8.20;99.90;;;;;;8284505;28;20038;-66
2021/03/29 06:48:04;;;;;;;15.40;3.50;;;8.20;99.90;;;;;;8286987;28;20049;-67
2021/03/29 06:52:27;;;;;;;15.07;3.03;;;8.20;99.90;;;;;;8313862;28;20045;-68
2021/03/29 06:56:34;;;;;;;16.38;3.38;;;8.20;99.90;;;;;;8308078;28;20048;-67
2021/03/29 07:00:41;;;;;;;16.85;3.72;;;8.20;99.90;;;;;;8289312;28;20737;-67
2021/03/29 07:04:46;;;;;;;16.20;4.25;;;8.20;99.90;;;;;;8298483;28;20520;-66
2021/03/29 07:08:50;;;;;;;18.73;4.47;;;8.20;99.90;;;;;;8298974;28;20041;-68
2021/03/29 07:12:57;;;;;;;21.23;4.60;;;8.20;99.90;;;;;;8313926;28;20061;-67
2021/03/29 07:17:04;;;;;;;25.27;4.70;;;8.20;99.90;;;;;;8286681;28;20081;-66
2021/03/29 07:21:13;;;;;;;21.88;5.30;;;8.20;99.90;;;;;;8303413;28;20042;-66
2021/03/29 07:25:17;;;;;;;32.28;7.10;;;8.30;99.90;;;;;;8269399;28;20053;-66
2021/03/29 07:29:32;;;;;;;27.08;6.13;;;8.30;99.90;;;;;;8283800;28;20053;-68
2021/03/29 07:33:50;;;;;;;21.30;5.68;;;8.30;99.90;;;;;;8293901;28;20049;-66
2021/03/29 07:37:57;;;;;;;28.98;5.60;;;8.40;99.90;;;;;;8284854;28;20041;-66
2021/03/29 07:42:23;;;;;;;27.70;5.50;;;8.30;99.90;;;;;;8281122;28;20046;-67
2021/03/29 07:46:55;;;;;;;30.90;4.70;;;8.40;99.90;;;;;;8282667;28;20042;-67
2021/03/29 07:51:04;;;;;;;37.42;6.25;;;8.40;99.90;;;;;;8293199;28;20052;-66
2021/03/29 07:55:28;;;;;;;27.30;5.88;;;8.40;99.90;;;;;;8297441;28;20133;-66
2021/03/29 07:59:50;;;;;;;32.75;5.20;;;8.50;99.90;;;;;;8308122;28;20430;-66
2021/03/29 08:04:11;;;;;;;25.20;4.97;;;8.50;99.90;;;;;;8310672;28;20044;-66
2021/03/29 08:12:33;;;;;;;33.53;5.32;;;8.50;99.90;;;;;;8296746;28;20608;-66
2021/03/29 08:16:37;;;;;;;44.42;6.50;;;8.50;99.90;;;;;;8278214;28;20525;-67
2021/03/29 08:20:46;;;;;;;38.07;6.60;;;8.60;99.90;;;;;;8273974;28;20041;-67
2021/03/29 08:24:53;;;;;;;36.72;5.85;;;8.60;99.90;;;;;;8293120;28;20053;-67
2021/03/29 08:29:14;;;;;;;35.83;7.45;;;8.60;99.90;;;;;;8265799;28;20397;-66
2021/03/29 08:33:18;;;;;;;34.00;5.73;;;8.70;99.90;;;;;;8295375;28;20188;-67
2021/03/29 08:37:30;;;;;;;31.02;5.65;;;8.80;99.90;;;;;;8284279;28;20046;-66
2021/03/29 08:41:41;;;;;;;30.75;5.88;;;8.80;99.90;;;;;;8300517;28;20049;-66
2021/03/29 08:45:48;;;;;;;32.58;6.90;;;8.80;99.90;;;;;;8307679;28;20050;-67
2021/03/29 08:49:58;;;;;;;38.40;7.03;;;8.90;99.90;;;;;;8279698;28;20091;-66
2021/03/29 08:54:09;;;;;;;36.60;6.40;;;9.00;99.90;;;;;;8279002;28;20503;-66
2021/03/29 08:58:18;;;;;;;26.15;6.93;;;9.10;99.90;;;;;;8300389;28;20053;-66
2021/03/29 09:02:24;;;;;;;33.80;7.32;;;9.00;99.90;;;;;;8280600;28;20074;-67
2021/03/29 09:06:33;;;;;;;36.33;6.55;;;9.00;99.90;;;;;;8291063;28;20145;-67
2021/03/29 09:10:43;;;;;;;37.47;6.75;;;9.00;99.90;;;;;;8300080;28;20042;-66
2021/03/29 09:14:50;;;;;;;35.70;7.22;;;9.10;99.90;;;;;;8300274;28;20534;-66
2021/03/29 09:18:54;;;;;;;27.85;6.18;;;9.10;99.90;;;;;;8293025;28;20048;-66
2021/03/29 09:23:01;;;;;;;26.13;7.15;;;9.00;99.90;;;;;;8301292;28;20049;-66
2021/03/29 09:27:12;;;;;;;26.92;6.03;;;9.10;99.90;;;;;;8278302;28;20079;-66
2021/03/29 09:31:25;;;;;;;33.42;6.25;;;9.10;99.90;;;;;;8278682;28;20037;-66
2021/03/29 09:35:27;;;;;;;30.13;6.45;;;9.10;99.90;;;;;;8274247;28;20108;-68
2021/03/29 09:39:31;;;;;;;35.53;7.47;;;9.10;99.90;;;;;;8274331;28;20519;-66
2021/03/29 09:43:47;;;;;;;39.28;8.30;;;9.10;99.90;;;;;;8302654;28;20045;-66
2021/03/29 09:48:09;;;;;;;31.60;6.35;;;9.20;99.90;;;;;;8276755;28;20049;-65
2021/03/29 09:52:15;;;;;;;46.22;7.15;;;9.20;99.90;;;;;;8277858;28;20092;-66
2021/03/29 09:56:28;;;;;;;36.25;7.30;;;9.20;99.90;;;;;;8290264;28;20123;-67
2021/03/29 10:00:36;;;;;;;39.10;6.68;;;9.20;99.90;;;;;;8277467;28;20049;-68
2021/03/29 10:04:38;;;;;;;33.35;6.25;;;9.20;99.90;;;;;;8289345;28;20060;-66
2021/03/29 10:08:56;;;;;;;28.90;6.88;;;9.20;99.90;;;;;;8296859;28;20042;-67
2021/03/29 10:13:06;;;;;;;44.53;7.53;;;9.30;99.90;;;;;;8299719;28;20089;-66
2021/03/29 10:17:20;;;;;;;35.75;7.38;;;9.30;99.90;;;;;;8281236;28;20156;-67
2021/03/29 10:21:26;;;;;;;41.40;7.43;;;9.30;99.90;;;;;;8282004;28;20060;-68
2021/03/29 10:25:30;;;;;;;35.38;6.15;;;9.40;99.90;;;;;;8293112;28;20045;-66
2021/03/29 10:29:41;;;;;;;35.83;6.78;;;9.40;99.90;;;;;;8298487;28;20108;-67
2021/03/29 10:33:50;;;;;;;28.63;5.22;;;9.40;99.90;;;;;;8298371;28;20046;-65
2021/03/29 10:37:57;;;;;;;26.05;6.07;;;9.50;99.90;;;;;;8277638;28;20507;-66
2021/03/29 10:42:01;;;;;;;36.65;7.07;;;9.50;99.90;;;;;;8297021;28;20742;-66
2021/03/29 10:46:06;;;;;;;23.23;5.93;;;9.50;99.90;;;;;;8291957;28;20055;-67
2021/03/29 10:50:16;;;;;;;29.67;6.07;;;9.50;99.90;;;;;;8292028;28;20057;-67
2021/03/29 10:54:23;;;;;;;39.20;7.43;;;9.50;99.90;;;;;;8282206;28;20582;-68
2021/03/29 10:58:27;;;;;;;37.15;7.07;;;9.50;99.90;;;;;;8295414;28;20056;-67
2021/03/29 11:02:31;;;;;;;37.25;6.45;;;9.60;99.90;;;;;;8289751;28;20365;-69
2021/03/29 11:06:37;;;;;;;38.63;7.40;;;9.60;99.90;;;;;;8303204;28;20049;-67
2021/03/29 11:10:45;;;;;;;30.95;7.35;;;9.60;99.90;;;;;;8274411;28;20414;-67
2021/03/29 11:15:00;;;;;;;34.28;6.68;;;9.60;99.90;;;;;;8264398;28;20057;-68
2021/03/29 11:19:04;;;;;;;37.33;8.40;;;9.60;99.90;;;;;;8260177;28;20045;-67
2021/03/29 11:23:13;;;;;;;31.25;6.55;;;9.60;99.90;;;;;;8278830;28;20323;-67
2021/03/29 11:27:15;;;;;;;32.50;7.25;;;9.60;99.90;;;;;;8281669;28;20061;-66
2021/03/29 11:31:21;;;;;;;30.30;8.02;;;9.70;99.90;;;;;;8281130;28;20050;-67
2021/03/29 11:35:26;;;;;;;40.78;7.55;;;9.70;99.90;;;;;;8259781;28;20056;-67
2021/03/29 11:39:30;;;;;;;35.60;8.55;;;9.70;99.90;;;;;;8287933;28;20038;-67
2021/03/29 11:43:35;;;;;;;36.58;7.47;;;9.70;99.90;;;;;;8296879;28;20327;-66
2021/03/29 11:47:41;;;;;;;33.33;7.53;;;9.70;99.90;;;;;;8268085;28;20044;-67
2021/03/29 11:51:46;;;;;;;31.58;5.90;;;9.70;99.90;;;;;;8292484;28;20049;-67
2021/03/29 11:55:50;;;;;;;31.23;7.13;;;9.70;99.90;;;;;;8286920;28;20519;-67
2021/03/29 11:59:59;;;;;;;33.97;6.68;;;9.80;99.90;;;;;;8270801;28;20045;-67
2021/03/29 12:04:18;;;;;;;31.65;6.97;;;9.80;99.90;;;;;;8311926;28;20044;-67
2021/03/29 12:12:31;;;;;;;40.97;7.03;;;9.90;99.90;;;;;;8303639;28;20049;-67
2021/03/29 12:16:42;;;;;;;32.97;5.85;;;9.90;99.90;;;;;;8275629;28;20438;-67
2021/03/29 12:20:49;;;;;;;35.17;7.82;;;9.90;99.90;;;;;;8298708;28;20116;-67
2021/03/29 12:24:56;;;;;;;34.53;7.45;;;9.90;99.90;;;;;;8294018;28;20049;-67
2021/03/29 12:29:01;;;;;;;30.77;6.35;;;9.90;99.90;;;;;;8279762;28;20551;-67
2021/03/29 12:33:09;;;;;;;30.48;6.57;;;9.90;99.90;;;;;;8276908;28;20053;-67
2021/03/29 12:37:20;;;;;;;30.50;7.72;;;10.00;99.90;;;;;;8284303;28;20064;-66
2021/03/29 12:41:25;;;;;;;29.98;7.53;;;10.00;99.90;;;;;;8283222;28;20042;-66
2021/03/29 12:45:33;;;;;;;28.45;6.10;;;10.00;99.90;;;;;;8288350;28;20053;-68
2021/03/29 12:49:38;;;;;;;53.35;8.45;;;10.00;99.90;;;;;;8284693;28;20053;-67
2021/03/29 12:53:46;;;;;;;33.28;8.05;;;10.00;99.90;;;;;;8275833;28;20055;-67
2021/03/29 12:57:57;;;;;;;39.38;7.60;;;11.10;99.90;;;;;;8303145;28;20072;-67
2021/03/29 13:02:04;;;;;;;23.38;5.30;;;10.00;99.90;;;;;;8281778;28;20627;-67
2021/03/29 13:06:19;;;;;;;28.05;6.03;;;10.10;99.90;;;;;;8291562;28;20075;-67
2021/03/29 13:11:00;;;;;;;30.30;6.45;;;10.10;99.90;;;;;;8301592;28;20057;-67
2021/03/29 13:15:09;;;;;;;29.27;6.50;;;10.10;99.90;;;;;;8299534;28;20439;-67
2021/03/29 13:19:17;;;;;;;30.17;7.10;;;10.00;99.90;;;;;;8303211;28;20810;-67
2021/03/29 13:23:21;;;;;;;26.92;5.93;;;10.10;99.90;;;;;;8287197;28;20078;-67
2021/03/29 13:27:28;;;;;;;31.38;7.07;;;10.10;99.90;;;;;;8278678;28;20052;-67
2021/03/29 13:31:32;;;;;;;33.10;7.07;;;10.10;99.90;;;;;;8285378;28;20458;-67
2021/03/29 13:35:39;;;;;;;26.08;4.80;;;10.20;99.90;;;;;;8282352;28;20060;-67
2021/03/29 13:39:46;;;;;;;29.60;7.15;;;10.20;99.90;;;;;;8297059;28;20503;-67
2021/03/29 13:43:50;;;;;;;26.60;6.90;;;10.20;99.90;;;;;;8301228;28;20041;-66
2021/03/29 13:47:55;;;;;;;26.77;7.18;;;10.20;99.90;;;;;;8287369;28;20069;-67
2021/03/29 13:52:01;;;;;;;32.65;7.93;;;10.20;99.90;;;;;;8298629;28;20124;-67
2021/03/29 13:56:05;;;;;;;20.60;5.95;;;10.10;99.90;;;;;;8273141;28;20049;-67
2021/03/29 14:00:11;;;;;;;27.83;6.13;;;10.10;99.90;;;;;;8292470;28;20081;-67
2021/03/29 14:04:17;;;;;;;28.73;7.60;;;10.20;99.90;;;;;;8299745;28;20048;-67
2021/03/29 14:08:21;;;;;;;25.00;6.85;;;10.20;99.90;;;;;;8294499;28;20088;-67
2021/03/29 14:12:31;;;;;;;26.27;6.35;;;10.10;99.90;;;;;;8292699;28;20049;-67
2021/03/29 14:16:41;;;;;;;24.02;7.18;;;10.10;99.90;;;;;;8303692;28;20099;-67
2021/03/29 14:20:48;;;;;;;28.75;7.43;;;10.20;99.90;;;;;;8268090;28;20430;-67
2021/03/29 14:24:53;;;;;;;31.50;8.20;;;10.20;99.90;;;;;;8263947;28;20225;-68
2021/03/29 14:29:01;;;;;;;23.98;6.93;;;10.20;99.90;;;;;;8291720;28;20180;-68
2021/03/29 14:33:08;;;;;;;30.02;7.53;;;10.10;99.90;;;;;;8271206;28;20076;-67
2021/03/29 14:37:34;;;;;;;24.77;7.35;;;10.10;99.90;;;;;;8280895;28;20057;-67
2021/03/29 14:45:52;;;;;;;32.30;7.93;;;10.10;99.90;;;;;;8298784;28;20415;-67
2021/03/29 14:49:56;;;;;;;33.42;8.55;;;10.00;99.90;;;;;;8303481;28;20049;-67
2021/03/29 14:53:58;;;;;;;22.80;7.03;;;10.10;99.90;;;;;;8309337;28;20057;-67
2021/03/29 14:58:00;;;;;;;27.60;7.00;;;10.10;99.90;;;;;;8298500;28;20479;-67
2021/03/29 15:02:08;;;;;;;30.60;7.63;;;10.10;99.90;;;;;;8302557;28;20042;-67
2021/03/29 15:06:26;;;;;;;26.15;6.85;;;10.10;99.90;;;;;;8281150;28;20053;-67
2021/03/29 15:10:35;;;;;;;27.83;7.38;;;10.10;99.90;;;;;;8302833;28;20048;-67
2021/03/29 15:14:44;;;;;;;23.92;6.97;;;10.10;99.90;;;;;;8286615;28;20049;-67
2021/03/29 15:18:51;;;;;;;28.95;8.40;;;10.10;99.90;;;;;;8299765;28;20168;-67
2021/03/29 15:22:56;;;;;;;37.13;8.75;;;10.10;99.90;;;;;;8288163;28;20103;-66
2021/03/29 15:27:05;;;;;;;29.67;8.68;;;10.10;99.90;;;;;;8302108;28;20051;-67
2021/03/29 15:31:10;;;;;;;27.63;7.30;;;10.10;99.90;;;;;;8304839;28;20839;-67
2021/03/29 15:35:15;;;;;;;29.83;8.77;;;10.10;99.90;;;;;;8289003;28;20045;-68
2021/03/29 15:39:22;;;;;;;25.05;7.70;;;10.00;99.90;;;;;;8300325;28;20049;-68
2021/03/29 15:43:26;;;;;;;28.27;7.43;;;10.00;99.90;;;;;;8270793;28;20050;-67
2021/03/29 15:47:33;;;;;;;30.17;9.15;;;10.00;99.90;;;;;;8284209;28;20128;-68
2021/03/29 15:51:39;;;;;;;29.42;7.95;;;10.00;99.90;;;;;;8313648;28;20739;-67
2021/03/29 15:55:43;;;;;;;32.92;8.23;;;9.90;99.90;;;;;;8286671;28;20473;-67
2021/03/29 15:59:49;;;;;;;23.50;7.47;;;9.90;99.90;;;;;;8296833;28;20419;-67
2021/03/29 16:04:00;;;;;;;29.48;8.63;;;9.90;99.90;;;;;;8300822;28;20419;-68
2021/03/29 16:08:06;;;;;;;27.27;9.20;;;9.90;99.90;;;;;;8299710;28;20049;-67
2021/03/29 16:12:12;;;;;;;26.40;7.03;;;10.00;99.90;;;;;;8310916;28;20731;-67
2021/03/29 16:16:19;;;;;;;32.75;8.00;;;9.90;99.90;;;;;;8304165;28;20041;-67
2021/03/29 16:20:24;;;;;;;35.70;8.88;;;9.90;99.90;;;;;;8299930;28;20132;-67
2021/03/29 16:24:29;;;;;;;25.48;7.70;;;9.90;99.90;;;;;;8287325;28;20041;-67
2021/03/29 16:28:39;;;;;;;27.70;8.73;;;9.90;99.90;;;;;;8282094;28;20144;-68
2021/03/29 16:32:47;;;;;;;33.85;8.95;;;9.80;99.90;;;;;;8307903;28;20122;-67
2021/03/29 16:36:51;;;;;;;31.13;8.15;;;9.80;99.90;;;;;;8267089;28;20124;-67
2021/03/29 16:41:02;;;;;;;30.92;9.30;;;9.70;99.90;;;;;;8287533;28;20418;-67
2021/03/29 16:45:04;;;;;;;27.15;8.10;;;9.70;99.90;;;;;;8297737;28;20053;-68
2021/03/29 16:49:08;;;;;;;31.88;9.73;;;9.70;99.90;;;;;;8288870;28;20064;-66
2021/03/29 16:53:33;;;;;;;24.45;8.32;;;9.70;99.90;;;;;;8309665;28;20084;-67
2021/03/29 16:57:37;;;;;;;32.60;8.57;;;9.60;99.90;;;;;;8299275;28;20051;-67
2021/03/29 17:01:39;;;;;;;34.47;9.97;;;9.60;99.90;;;;;;8280102;28;20045;-66
2021/03/29 17:05:49;;;;;;;34.88;8.75;;;9.50;99.90;;;;;;8299453;28;20590;-67
2021/03/29 17:09:54;;;;;;;27.73;9.25;;;9.50;99.90;;;;;;8306179;28;20080;-68
2021/03/29 17:14:00;;;;;;;32.78;7.93;;;9.50;99.90;;;;;;8283637;28;20462;-67
2021/03/29 17:18:07;;;;;;;33.00;10.15;;;9.40;99.90;;;;;;8300831;28;20083;-66
2021/03/29 17:22:12;;;;;;;36.83;10.85;;;9.30;99.90;;;;;;8298872;28;20404;-67
2021/03/29 17:26:19;;;;;;;44.60;10.65;;;9.40;99.90;;;;;;8293863;28;20176;-66
2021/03/29 17:30:24;;;;;;;33.88;9.50;;;9.30;99.90;;;;;;8290536;28;20514;-67
2021/03/29 17:34:28;;;;;;;37.72;9.68;;;9.30;99.90;;;;;;8282367;28;20045;-66
2021/03/29 17:38:32;;;;;;;36.10;8.82;;;9.30;99.90;;;;;;8293427;28;20152;-66
2021/03/29 17:42:38;;;;;;;33.78;8.93;;;9.20;99.90;;;;;;8298122;28;20523;-65
2021/03/29 17:46:44;;;;;;;46.92;9.23;;;9.20;99.90;;;;;;8296970;28;20431;-67
2021/03/29 17:50:48;;;;;;;34.22;8.73;;;9.10;99.90;;;;;;8268180;28;20573;-67
2021/03/29 17:54:55;;;;;;;36.55;9.15;;;9.10;99.90;;;;;;8284748;28;20599;-66
2021/03/29 17:58:59;;;;;;;39.33;9.80;;;9.10;99.90;;;;;;8262264;28;20521;-66
2021/03/29 18:03:06;;;;;;;49.83;9.50;;;9.10;99.90;;;;;;8280403;28;20041;-66
2021/03/29 18:07:12;;;;;;;30.67;8.43;;;9.10;99.90;;;;;;8290508;28;20058;-66
2021/03/29 18:11:15;;;;;;;41.60;10.43;;;9.10;99.90;;;;;;8289898;28;20042;-66
2021/03/29 18:15:20;;;;;;;32.40;9.10;;;9.10;99.90;;;;;;8282073;28;20499;-66
2021/03/29 18:19:29;;;;;;;40.05;8.27;;;9.10;99.90;;;;;;8279861;28;20049;-66
2021/03/29 18:23:35;;;;;;;33.00;8.32;;;9.00;99.90;;;;;;8299821;28;20037;-66
2021/03/29 18:27:39;;;;;;;32.75;9.55;;;9.00;99.90;;;;;;8313166;28;20068;-68
2021/03/29 18:32:00;;;;;;;44.03;9.07;;;9.00;99.90;;;;;;8280781;28;20049;-70
2021/03/29 18:36:05;;;;;;;36.92;9.30;;;9.00;99.90;;;;;;8294706;28;20050;-69
2021/03/29 18:40:15;;;;;;;36.60;10.52;;;9.00;99.90;;;;;;8304241;28;20045;-69
2021/03/29 18:44:24;;;;;;;37.65;8.95;;;9.00;99.90;;;;;;8288119;28;20593;-69
2021/03/29 18:48:28;;;;;;;33.90;8.57;;;9.00;99.90;;;;;;8312571;28;20525;-70
2021/03/29 18:52:36;;;;;;;39.67;8.85;;;8.90;99.90;;;;;;8302784;28;20045;-70
2021/03/29 18:57:02;;;;;;;32.22;8.93;;;9.00;99.90;;;;;;8295835;28;20092;-70
2021/03/29 19:01:06;;;;;;;42.55;10.07;;;8.90;99.90;;;;;;8301366;28;20037;-70
2021/03/29 19:05:11;;;;;;;37.40;9.38;;;9.00;99.90;;;;;;8302125;28;20107;-69
2021/03/29 19:09:19;;;;;;;33.38;8.45;;;8.90;99.90;;;;;;8310583;28;20057;-70
2021/03/29 19:13:25;;;;;;;30.83;8.50;;;9.00;99.90;;;;;;8288221;28;20057;-71
2021/03/29 19:17:30;;;;;;;30.55;8.48;;;9.00;99.90;;;;;;8297865;28;20153;-70
2021/03/29 19:22:07;;;;;;;37.40;9.57;;;9.00;99.90;;;;;;8303906;28;20103;-70
2021/03/29 19:26:17;;;;;;;27.60;8.55;;;9.00;99.90;;;;;;8301586;28;20057;-70
2021/03/29 19:30:26;;;;;;;35.35;8.13;;;9.00;99.90;;;;;;8292560;28;20142;-69
2021/03/29 19:34:39;;;;;;;40.67;9.02;;;9.00;99.90;;;;;;8282910;28;20599;-69
2021/03/29 19:38:48;;;;;;;27.75;7.90;;;8.90;99.90;;;;;;8277851;28;20056;-71
2021/03/29 19:42:53;;;;;;;32.45;8.55;;;9.00;99.90;;;;;;8304095;28;20051;-69
2021/03/29 19:46:56;;;;;;;36.08;9.23;;;9.00;99.90;;;;;;8290337;28;20512;-69
2021/03/29 19:51:01;;;;;;;42.85;10.65;;;9.00;99.90;;;;;;8293483;28;20053;-70
2021/03/29 19:55:06;;;;;;;32.88;9.13;;;9.00;99.90;;;;;;8285553;28;20085;-70
2021/03/29 19:59:12;;;;;;;34.53;8.55;;;9.00;99.90;;;;;;8305090;28;20581;-69
2021/03/29 20:03:22;;;;;;;35.40;8.35;;;9.00;99.90;;;;;;8302120;28;20620;-71
2021/03/29 20:07:38;;;;;;;36.30;7.72;;;9.00;99.90;;;;;;8267437;28;20081;-72
2021/03/29 20:11:42;;;;;;;38.60;8.90;;;9.10;99.90;;;;;;8308591;28;20050;-71
2021/03/29 20:15:47;;;;;;;33.22;7.68;;;9.40;99.90;;;;;;8304361;28;20055;-71
2021/03/29 20:19:52;;;;;;;40.00;9.60;;;9.10;99.90;;;;;;8292187;28;20068;-72
2021/03/29 20:23:56;;;;;;;41.95;9.40;;;9.00;99.90;;;;;;8299663;28;20749;-72
2021/03/29 20:28:03;;;;;;;32.53;7.68;;;9.10;99.90;;;;;;8302008;28;20087;-71
2021/03/29 20:32:07;;;;;;;41.47;8.80;;;9.00;99.90;;;;;;8295437;28;20072;-71
2021/03/29 20:36:24;;;;;;;43.10;8.73;;;9.00;99.90;;;;;;8285461;28;20049;-70
2021/03/29 20:40:30;;;;;;;30.05;7.63;;;9.00;99.90;;;;;;8295849;28;20072;-71
2021/03/29 20:44:35;;;;;;;34.25;7.45;;;9.00;99.90;;;;;;8266921;28;20054;-71
2021/03/29 20:48:42;;;;;;;36.15;7.93;;;8.90;99.90;;;;;;8280617;28;20076;-71
2021/03/29 20:52:47;;;;;;;51.97;9.82;;;8.90;99.90;;;;;;8311906;28;20064;-70
2021/03/29 20:56:52;;;;;;;38.00;8.30;;;8.90;99.90;;;;;;8284014;28;20076;-71
2021/03/29 21:01:01;;;;;;;30.50;7.95;;;8.90;99.90;;;;;;8296624;28;20057;-71
2021/03/29 21:05:06;;;;;;;33.92;8.75;;;8.90;99.90;;;;;;8284063;28;20076;-70
2021/03/29 21:09:16;;;;;;;37.72;8.93;;;8.80;99.90;;;;;;8282330;28;20052;-70
2021/03/29 21:13:20;;;;;;;38.72;9.13;;;8.80;99.90;;;;;;8292808;28;20045;-71
2021/03/29 21:17:24;;;;;;;33.08;8.85;;;8.80;99.90;;;;;;8277590;28;20071;-73
2021/03/29 21:21:30;;;;;;;36.30;8.80;;;8.80;99.90;;;;;;8289366;28;20654;-72
2021/03/29 21:25:37;;;;;;;31.55;9.25;;;8.70;99.90;;;;;;8277940;28;20053;-71
2021/03/29 21:30:04;;;;;;;26.92;8.70;;;8.70;99.90;;;;;;8287686;28;20050;-71
2021/03/29 21:34:06;;;;;;;29.83;8.10;;;8.70;99.90;;;;;;8267610;28;20045;-70
2021/03/29 21:38:13;;;;;;;39.08;8.50;;;8.70;99.90;;;;;;8284787;28;20156;-70
2021/03/29 21:42:19;;;;;;;38.78;9.55;;;8.70;99.90;;;;;;8275876;28;20049;-71
2021/03/29 21:46:23;;;;;;;34.60;8.48;;;8.60;99.90;;;;;;8303401;28;20042;-70
2021/03/29 21:50:29;;;;;;;35.25;9.00;;;8.60;99.90;;;;;;8292708;28;20244;-71
2021/03/29 21:54:36;;;;;;;33.42;8.65;;;8.60;99.90;;;;;;8301507;28;20042;-72
2021/03/29 21:58:40;;;;;;;33.45;8.25;;;8.60;99.90;;;;;;8302022;28;20160;-72
2021/03/29 22:02:44;;;;;;;40.10;8.68;;;8.60;99.90;;;;;;8299645;28;20050;-72
2021/03/29 22:06:51;;;;;;;32.53;8.85;;;8.60;99.90;;;;;;8305572;28;21690;-70
2021/03/29 22:10:55;;;;;;;36.30;8.68;;;8.60;99.90;;;;;;8308104;28;20554;-70
2021/03/29 22:15:00;;;;;;;39.67;8.80;;;8.60;99.90;;;;;;8288829;28;20100;-71
2021/03/29 22:19:04;;;;;;;38.13;8.95;;;8.60;99.90;;;;;;8303311;28;20681;-72
2021/03/29 22:23:09;;;;;;;36.13;8.55;;;8.60;99.90;;;;;;8286834;28;20716;-72
2021/03/29 22:27:13;;;;;;;29.27;8.07;;;8.60;99.90;;;;;;8311185;28;20474;-71
2021/03/29 22:40:11;;;;;;;40.40;8.85;;;8.60;99.90;;;;;;8284561;28;20415;-71
2021/03/29 22:44:17;;;;;;;39.35;9.90;;;8.60;99.90;;;;;;8304007;28;20041;-68
2021/03/29 22:48:21;;;;;;;42.45;9.32;;;8.60;99.90;;;;;;8289515;28;20238;-70
2021/03/29 22:52:28;;;;;;;51.25;10.30;;;8.60;99.90;;;;;;8293332;28;20045;-71
2021/03/29 22:56:35;;;;;;;38.65;7.93;;;8.60;99.90;;;;;;8285307;28;20079;-70
2021/03/29 23:00:42;;;;;;;31.42;7.85;;;8.60;99.90;;;;;;8303944;28;20607;-71
2021/03/29 23:04:46;;;;;;;30.75;7.78;;;8.60;99.90;;;;;;8295525;28;20057;-70
2021/03/29 23:08:50;;;;;;;39.70;8.60;;;8.60;99.90;;;;;;8306922;28;20704;-70
2021/03/29 23:12:55;;;;;;;37.20;7.90;;;8.70;99.90;;;;;;8300577;28;20373;-70
2021/03/29 23:16:56;;;;;;;32.45;8.10;;;8.60;99.90;;;;;;8278462;28;20129;-70
2021/03/29 23:21:00;;;;;;;29.27;8.57;;;8.70;99.90;;;;;;8279584;28;20049;-70
2021/03/29 23:25:07;;;;;;;35.92;7.97;;;8.60;99.90;;;;;;8301454;28;20088;-70
2021/03/29 23:29:12;;;;;;;31.75;8.98;;;8.70;99.90;;;;;;8297587;28;20462;-71
2021/03/29 23:33:16;;;;;;;27.80;7.65;;;8.60;99.90;;;;;;8287136;28;20065;-71
2021/03/29 23:37:20;;;;;;;31.70;9.50;;;8.60;99.90;;;;;;8285900;28;20049;-72
2021/03/29 23:41:26;;;;;;;42.60;8.63;;;8.60;99.90;;;;;;8300701;28;20503;-71
2021/03/29 23:45:30;;;;;;;30.40;8.52;;;8.60;99.90;;;;;;8298555;28;20128;-70
2021/03/29 23:49:34;;;;;;;32.65;7.55;;;8.60;99.90;;;;;;8289723;28;20062;-72
2021/03/29 23:53:40;;;;;;;30.52;7.50;;;8.60;99.90;;;;;;8281993;28;20075;-71
2021/03/29 23:57:47;;;;;;;32.15;7.53;;;8.60;99.90;;;;;;8283885;28;20587;-70
